»·PEaware :: SKW1187 KSNA-KSFO

SKW1187 :: KSNA-KSFO

FLIGHT INFORMATION

Flight Status: Arrived
Operator:
SkyWest Airlines
More flights by this operator :: More flights under this callsign
Pilot: Anonymous 12254 (12254)
Aircraft: CANADAIR CL-600 CRJ-200
(CRJ2)
More flights by this aircraft type
Origin: KSNA John Wayne-Orange Co
United States
Destination: KSFO San Francisco Intl
United States
More flights between these airports :: More routes between these airports
Route: HHERO3 IKAYE RIZIN SPLNT STOKD SERFR SERFR3
File this flight plan on PilotEdge
Remarks:
Altitude:
(Current/Filed)
34,000ft
Speed:
(Current/Filed)
420kts
Departed: 26-May-19 02:56 PM
Arrived: 26-May-19 03:59 PM
Distance/Time
Traveled:
323nm/1:03
Distance/Time
To Go:
Arrived

Flight Plot

Page will automatically refresh every two minutes.

Flight plan parsing failed; only flown route is shown


Map Options




Map Legend


Flown Route
Filed Route
Departure Airport
Arrival Airport
Navaid (VOR, NDB)
Fix

Horizontal Profiles

Position Reports

Time Latitude Longitude Heading Altitude Ground
Speed
26-May-19 13:56 33.675701 -117.864594 118 61ft 0kts
26-May-19 14:02 33.675701 -117.864594 118 61ft 0kts
26-May-19 14:03 33.675701 -117.864594 118 61ft 0kts
26-May-19 14:04 33.675701 -117.864594 118 61ft 0kts
26-May-19 14:05 33.675701 -117.864594 118 61ft 0kts
26-May-19 14:06 33.675701 -117.864594 118 61ft 0kts
26-May-19 14:07 33.675701 -117.864594 118 61ft 0kts
26-May-19 14:08 33.675701 -117.864594 118 61ft 0kts
26-May-19 14:09 33.675701 -117.864594 118 61ft 0kts
26-May-19 14:10 33.675701 -117.864594 118 61ft 0kts
26-May-19 14:11 33.675701 -117.864594 118 61ft 0kts
26-May-19 14:12 33.675701 -117.864594 118 61ft 0kts
26-May-19 14:13 33.675701 -117.864594 118 61ft 0kts
26-May-19 14:14 33.675701 -117.864594 118 61ft 0kts
26-May-19 14:15 33.675701 -117.864594 118 61ft 0kts
26-May-19 14:16 33.675701 -117.864594 118 61ft 0kts
26-May-19 14:17 33.675701 -117.864594 118 61ft 0kts
26-May-19 14:18 33.675701 -117.864594 118 61ft 0kts
26-May-19 14:19 33.675701 -117.864594 118 61ft 0kts
26-May-19 14:20 33.675701 -117.864594 118 61ft 0kts
26-May-19 14:21 33.675701 -117.864594 118 61ft 0kts
26-May-19 14:22 33.675701 -117.864594 118 61ft 0kts
26-May-19 14:23 33.675701 -117.864594 118 61ft 0kts
26-May-19 14:24 33.675701 -117.864594 118 61ft 0kts
26-May-19 14:25 33.675701 -117.864594 118 61ft 0kts
26-May-19 14:26 33.675701 -117.864594 118 61ft 0kts
26-May-19 14:27 33.675701 -117.864594 118 61ft 0kts
26-May-19 14:28 33.675701 -117.864594 118 61ft 0kts
26-May-19 14:29 33.675701 -117.864594 118 61ft 0kts
26-May-19 14:30 33.675701 -117.864594 118 61ft 0kts
26-May-19 14:31 33.675701 -117.864594 118 61ft 0kts
26-May-19 14:32 33.675701 -117.864594 118 61ft 0kts
26-May-19 14:33 33.675701 -117.864594 118 61ft 0kts
26-May-19 14:34 33.675701 -117.864594 118 61ft 0kts
26-May-19 14:36 33.675701 -117.864594 118 61ft 0kts
26-May-19 14:37 33.675701 -117.864594 118 61ft 0kts
26-May-19 14:38 33.675701 -117.864594 118 61ft 0kts
26-May-19 14:39 33.675700 -117.864594 117 61ft 0kts
26-May-19 14:40 33.675700 -117.864594 117 61ft 0kts
26-May-19 14:41 33.675700 -117.864594 117 61ft 0kts
26-May-19 14:42 33.675700 -117.864594 117 61ft 0kts
26-May-19 14:43 33.675700 -117.864594 117 61ft 0kts
26-May-19 14:44 33.675700 -117.864594 117 61ft 0kts
26-May-19 14:45 33.675700 -117.864594 117 61ft 0kts
26-May-19 14:46 33.675700 -117.864594 117 61ft 0kts
26-May-19 14:47 33.675701 -117.864594 118 61ft 0kts
26-May-19 14:48 33.675701 -117.864594 118 61ft 0kts
26-May-19 14:49 33.675922 -117.865096 117 61ft 0kts
26-May-19 14:50 33.675987 -117.865244 108 61ft 0kts
26-May-19 14:51 33.676146 -117.865211 31 61ft 0kts
26-May-19 14:52 33.676147 -117.865211 31 61ft 0kts
26-May-19 14:53 33.676848 -117.864753 28 61ft 9kts
26-May-19 14:54 33.680352 -117.862755 334 61ft 15kts
26-May-19 14:55 33.681149 -117.864206 297 61ft 0kts
26-May-19 14:55 33.677244 -117.867849 207 61ft 95kts
26-May-19 14:57 33.623618 -117.889871 183 1742ft 200kts
26-May-19 14:58 33.568458 -117.904334 223 3796ft 208kts
26-May-19 14:58 33.534416 -117.941661 222 5819ft 193kts
26-May-19 14:59 33.495344 -117.985426 223 7731ft 204kts
26-May-19 15:01 33.454028 -118.056617 239 10166ft 250kts
26-May-19 15:01 33.422000 -118.121402 239 11914ft 290kts
26-May-19 15:02 33.424085 -118.218184 282 13954ft 299kts
26-May-19 15:03 33.446034 -118.312904 296 15948ft 289kts
26-May-19 15:04 33.481665 -118.396553 297 17917ft 274kts
26-May-19 15:05 33.516434 -118.476524 297 19894ft 265kts
26-May-19 15:06 33.558683 -118.545722 307 21864ft 255kts
26-May-19 15:07 33.604171 -118.616858 307 23931ft 279kts
26-May-19 15:08 33.652593 -118.692525 307 25942ft 303kts
26-May-19 15:09 33.725606 -118.749552 332 28036ft 323kts
26-May-19 15:10 33.808549 -118.801350 332 30087ft 342kts
26-May-19 15:11 33.896437 -118.856076 332 32140ft 358kts
26-May-19 15:12 33.988571 -118.913570 332 33709ft 384kts
26-May-19 15:13 34.089983 -118.977018 332 33955ft 425kts
26-May-19 15:14 34.175756 -119.074165 302 33951ft 448kts
26-May-19 15:15 34.243811 -119.205714 301 33947ft 460kts
26-May-19 15:16 34.313112 -119.340731 301 33942ft 458kts
26-May-19 15:17 34.380387 -119.472301 301 33943ft 448kts
26-May-19 15:18 34.458290 -119.590266 314 33943ft 440kts
26-May-19 15:19 34.544123 -119.696102 314 33943ft 433kts
26-May-19 15:20 34.628545 -119.800331 314 33943ft 426kts
26-May-19 15:21 34.711916 -119.903576 314 33943ft 420kts
26-May-19 15:22 34.793733 -120.005206 314 33943ft 415kts
26-May-19 15:23 34.874507 -120.105840 314 33943ft 409kts
26-May-19 15:24 34.955167 -120.206636 314 33946ft 412kts
26-May-19 15:25 35.036160 -120.308152 314 33946ft 417kts
26-May-19 15:26 35.119065 -120.407837 317 33946ft 421kts
26-May-19 15:27 35.206821 -120.506272 317 33945ft 424kts
26-May-19 15:28 35.293891 -120.604131 317 33944ft 421kts
26-May-19 15:29 35.380039 -120.701246 317 33944ft 418kts
26-May-19 15:30 35.465365 -120.797725 317 33944ft 416kts
26-May-19 15:31 35.556120 -120.885514 322 33944ft 413kts
26-May-19 15:32 35.647879 -120.970810 322 33944ft 411kts
26-May-19 15:33 35.738945 -121.055669 322 33944ft 408kts
26-May-19 15:34 35.829135 -121.139958 322 33944ft 406kts
26-May-19 15:35 35.919387 -121.224551 322 33944ft 405kts
26-May-19 15:36 36.009513 -121.309276 322 33945ft 407kts
26-May-19 15:37 36.102002 -121.390806 327 33946ft 408kts
26-May-19 15:38 36.198426 -121.466139 327 34004ft 408kts
26-May-19 15:39 36.295716 -121.542275 328 32540ft 419kts
26-May-19 15:40 36.396683 -121.621528 328 30384ft 442kts
26-May-19 15:41 36.500709 -121.703451 327 28246ft 439kts
26-May-19 15:42 36.601733 -121.783311 327 26251ft 421kts
26-May-19 15:43 36.698516 -121.860061 327 23677ft 410kts
26-May-19 15:44 36.799808 -121.910254 346 19649ft 378kts
26-May-19 15:45 36.897867 -121.937860 347 15610ft 347kts
26-May-19 15:46 36.987671 -121.967167 342 11979ft 317kts
26-May-19 15:47 37.070197 -121.999227 342 9418ft 311kts
26-May-19 15:48 37.149059 -122.030039 342 8003ft 272kts
26-May-19 15:49 37.219502 -122.057624 342 8010ft 264kts
26-May-19 15:50 37.290894 -122.085657 342 7921ft 274kts
26-May-19 15:51 37.364930 -122.114834 342 6112ft 268kts
26-May-19 15:52 37.430903 -122.138323 343 5237ft 240kts
26-May-19 15:53 37.495264 -122.162805 343 3843ft 232kts
26-May-19 15:54 37.546637 -122.199039 286 2853ft 214kts
26-May-19 15:55 37.572771 -122.265844 298 1707ft 207kts
26-May-19 15:56 37.598735 -122.327485 298 620ft 179kts
26-May-19 15:57 37.619052 -122.375993 298 21ft 104kts
26-May-19 15:58 37.622133 -122.385358 264 27ft 0kts
26-May-19 15:59 37.621723 -122.386372 210 28ft 8kts
26-May-19 16:00 37.620930 -122.388548 208 28ft 0kts

Navigation Log

Ident Type
Flight plan parsing failed, navigation log unavailable